Unbenanntes Dokument
Flugplatz Bielefeld Platzwetter

 

Aktuelles Platzwetter am Flugplatz Bielefeld EDLI

11.12.18 ,00:11 Uhr

METAR EDLI 110011Z 29008KT 9999 ///031 ///042 02/02 Q1020

 

Windwerte

 

Wolkenuntergrenzen

Wind aktuell:290 ° mit 12 kt
Wind 10 min Extrem:
270 ° bis 310 ° mit 5 kt bis 12 kt
Seitenwindkomponente: 0.5 kt
Wolkengrenze 1: 3100 ft
Wolkengrenze 2:
Wolkengrenze 3:

Webcam

Temperatur

       

Sichtweite:

20.000 Meter

2.5 °C
Taupunkt: 2.1 °C
Luftfeuchtigkeit: 97 %

Luftdruck:

QNH: 1020 hPa (30.12 in Hg)
QFE: 1003 hPa (29.62 in Hg)

Diese Daten werden automatisch ermittelt bzw. übertragen und sind nicht geprüft. Für die Richtigkeit wird daher keine Gewähr übernommen. Sie ersetzen im übrigen nicht die Flugwetterberatung. Alle Zeitangaben beziehen sich auf UTC. Die Seite wird einmal die Minute aktualisiert! Sollten Sie ein ältere Seite haben, so drücken Sie bitte auf den Reload Button Ihres Browsers!